GOSIM EGKH-EGKH
Flight info
| Callsign | GOSIM |
|---|---|
| Flight time | N/A |
| Altitude | 3000 |
| Route | DET DCT LAM DCT LAM270032 DCT WOD DCT WOD230022 DCT MID270013 DCT MID DCT MID110009 DCT MAY |
| Aircraft | C208/L-SDFGR/C |
Departure
| Time | 2026-04-20 11:16 |
|---|---|
| Airport | Headcorn Aerodrome (EGKH) |
Arrival
| Time | N/A |
|---|---|
| Airport | Headcorn Aerodrome (EGKH) |
| Time | Latitude | Longitude | Altitude | Speed | Heading |
|---|---|---|---|---|---|
| 2026-04-20 11:08 | 51.15562 | 0.64642 | 88 ft | 0 kts | 103° |
| 2026-04-20 11:10 | 51.15532 | 0.64702 | 91 ft | 21 kts | 130° |
| 2026-04-20 11:10 | 51.15461 | 0.64743 | 92 ft | 7 kts | 254° |
| 2026-04-20 11:11 | 51.15462 | 0.64726 | 90 ft | 0 kts | 288° |
| 2026-04-20 11:13 | 51.15513 | 0.64781 | 88 ft | 16 kts | 95° |
| 2026-04-20 11:14 | 51.15500 | 0.64916 | 88 ft | 9 kts | 93° |
| 2026-04-20 11:14 | 51.15517 | 0.64960 | 86 ft | 2 kts | 2° |
| 2026-04-20 11:14 | 51.15519 | 0.64959 | 83 ft | 0 kts | 348° |
| 2026-04-20 11:15 | 51.15536 | 0.64934 | 79 ft | 18 kts | 294° |
| 2026-04-20 11:15 | 51.15644 | 0.64382 | 147 ft | 77 kts | 287° |
| 2026-04-20 11:16 | 51.15794 | 0.63427 | 383 ft | 100 kts | 290° |
| 2026-04-20 11:16 | 51.15982 | 0.62276 | 659 ft | 114 kts | 291° |
| 2026-04-20 11:16 | 51.16200 | 0.61000 | 959 ft | 124 kts | 291° |
| 2026-04-20 11:16 | 51.16601 | 0.59816 | 1265 ft | 123 kts | 330° |
| 2026-04-20 11:17 | 51.17409 | 0.59428 | 1533 ft | 122 kts | 350° |
| 2026-04-20 11:17 | 51.18257 | 0.59313 | 1835 ft | 125 kts | 11° |
| 2026-04-20 11:17 | 51.19128 | 0.59567 | 2085 ft | 132 kts | 9° |
| 2026-04-20 11:17 | 51.20071 | 0.59846 | 2202 ft | 144 kts | 10° |
| 2026-04-20 11:18 | 51.21087 | 0.60160 | 2220 ft | 150 kts | 11° |
| 2026-04-20 11:18 | 51.22088 | 0.60471 | 2237 ft | 145 kts | 11° |
| 2026-04-20 11:18 | 51.23068 | 0.60796 | 2248 ft | 143 kts | 11° |
| 2026-04-20 11:18 | 51.24034 | 0.61109 | 2233 ft | 141 kts | 11° |
| 2026-04-20 11:19 | 51.24994 | 0.61401 | 2258 ft | 141 kts | 11° |
| 2026-04-20 11:19 | 51.25948 | 0.61693 | 2228 ft | 139 kts | 11° |
| 2026-04-20 11:19 | 51.26894 | 0.61991 | 2246 ft | 139 kts | 11° |
| 2026-04-20 11:19 | 51.27848 | 0.62235 | 2229 ft | 139 kts | 356° |
| 2026-04-20 11:20 | 51.28705 | 0.61548 | 2212 ft | 139 kts | 328° |
| 2026-04-20 11:20 | 51.29452 | 0.60564 | 2225 ft | 140 kts | 321° |
| 2026-04-20 11:20 | 51.30179 | 0.59511 | 2235 ft | 141 kts | 327° |
| 2026-04-20 11:20 | 51.31104 | 0.59088 | 2223 ft | 140 kts | 359° |
| 2026-04-20 11:21 | 51.32054 | 0.59307 | 2228 ft | 140 kts | 13° |
| 2026-04-20 11:21 | 51.33004 | 0.59472 | 2229 ft | 140 kts | 345° |
| 2026-04-20 11:21 | 51.33768 | 0.58536 | 2200 ft | 138 kts | 323° |
| 2026-04-20 11:21 | 51.34661 | 0.58119 | 2229 ft | 136 kts | 355° |
| 2026-04-20 11:22 | 51.35602 | 0.57968 | 2215 ft | 136 kts | 11° |
| 2026-04-20 11:22 | 51.36361 | 0.58838 | 2210 ft | 138 kts | 43° |
| 2026-04-20 11:22 | 51.37223 | 0.59341 | 2181 ft | 137 kts | 358° |
| 2026-04-20 11:22 | 51.38156 | 0.59006 | 2180 ft | 139 kts | 342° |
| 2026-04-20 11:23 | 51.38876 | 0.58032 | 2163 ft | 145 kts | 296° |
| 2026-04-20 11:23 | 51.39000 | 0.56411 | 2174 ft | 148 kts | 275° |
| 2026-04-20 11:23 | 51.38999 | 0.54756 | 2168 ft | 149 kts | 272° |
| 2026-04-20 11:23 | 51.38974 | 0.53087 | 2167 ft | 151 kts | 272° |
| 2026-04-20 11:24 | 51.38934 | 0.51404 | 2162 ft | 151 kts | 272° |
| 2026-04-20 11:24 | 51.38891 | 0.49728 | 2189 ft | 151 kts | 272° |
| 2026-04-20 11:24 | 51.38960 | 0.48097 | 2172 ft | 144 kts | 299° |
| 2026-04-20 11:24 | 51.39673 | 0.47070 | 2181 ft | 139 kts | 332° |
| 2026-04-20 11:25 | 51.40522 | 0.46340 | 2159 ft | 138 kts | 335° |
| 2026-04-20 11:25 | 51.41387 | 0.45645 | 2168 ft | 139 kts | 336° |
| 2026-04-20 11:25 | 51.42240 | 0.44887 | 2182 ft | 142 kts | 330° |
| 2026-04-20 11:25 | 51.43056 | 0.43951 | 2201 ft | 147 kts | 321° |
| 2026-04-20 11:26 | 51.43801 | 0.42796 | 2198 ft | 150 kts | 318° |
| 2026-04-20 11:26 | 51.44523 | 0.41590 | 2168 ft | 150 kts | 316° |
| 2026-04-20 11:26 | 51.45232 | 0.40384 | 2143 ft | 147 kts | 317° |
| 2026-04-20 11:26 | 51.45948 | 0.39224 | 2143 ft | 145 kts | 319° |
| 2026-04-20 11:27 | 51.46679 | 0.38113 | 2144 ft | 144 kts | 321° |
| 2026-04-20 11:27 | 51.47418 | 0.37026 | 2144 ft | 144 kts | 321° |
| 2026-04-20 11:27 | 51.48153 | 0.35955 | 2128 ft | 142 kts | 321° |
| 2026-04-20 11:27 | 51.48885 | 0.34884 | 2130 ft | 142 kts | 321° |
| 2026-04-20 11:28 | 51.49615 | 0.33814 | 2149 ft | 143 kts | 321° |
| 2026-04-20 11:28 | 51.50105 | 0.33108 | 2169 ft | 143 kts | 322° |
| 2026-04-20 11:28 | 51.50848 | 0.32044 | 2206 ft | 143 kts | 321° |
| 2026-04-20 11:28 | 51.51601 | 0.30998 | 2219 ft | 143 kts | 326° |
| 2026-04-20 11:29 | 51.52687 | 0.29799 | 2197 ft | 145 kts | 327° |
| 2026-04-20 11:29 | 51.53497 | 0.28835 | 2184 ft | 145 kts | 326° |
| 2026-04-20 11:29 | 51.54301 | 0.27866 | 2185 ft | 143 kts | 325° |
| 2026-04-20 11:29 | 51.54844 | 0.27221 | 2187 ft | 145 kts | 326° |
| 2026-04-20 11:30 | 51.55641 | 0.26216 | 2184 ft | 146 kts | 325° |
| 2026-04-20 11:30 | 51.56437 | 0.25233 | 2173 ft | 142 kts | 327° |
| 2026-04-20 11:30 | 51.57233 | 0.24291 | 2187 ft | 144 kts | 327° |
| 2026-04-20 11:30 | 51.58047 | 0.23335 | 2173 ft | 143 kts | 327° |
| 2026-04-20 11:31 | 51.58849 | 0.22382 | 2173 ft | 142 kts | 327° |
| 2026-04-20 11:31 | 51.59638 | 0.21434 | 2183 ft | 143 kts | 326° |
| 2026-04-20 11:31 | 51.60396 | 0.20355 | 2186 ft | 147 kts | 322° |
| 2026-04-20 11:31 | 51.61140 | 0.19251 | 2177 ft | 144 kts | 321° |
| 2026-04-20 11:32 | 51.61866 | 0.18152 | 2173 ft | 143 kts | 322° |
| 2026-04-20 11:32 | 51.62602 | 0.17033 | 2186 ft | 148 kts | 318° |
| 2026-04-20 11:32 | 51.63024 | 0.15527 | 2172 ft | 152 kts | 280° |
| 2026-04-20 11:32 | 51.63104 | 0.13817 | 2179 ft | 154 kts | 279° |
| 2026-04-20 11:33 | 51.63208 | 0.12100 | 2190 ft | 155 kts | 279° |
| 2026-04-20 11:33 | 51.63321 | 0.10373 | 2191 ft | 155 kts | 286° |
| 2026-04-20 11:33 | 51.63632 | 0.08724 | 2173 ft | 155 kts | 292° |
| 2026-04-20 11:33 | 51.63954 | 0.07061 | 2179 ft | 155 kts | 292° |
| 2026-04-20 11:34 | 51.64261 | 0.05429 | 2175 ft | 153 kts | 291° |
| 2026-04-20 11:34 | 51.64561 | 0.03787 | 2166 ft | 154 kts | 291° |
| 2026-04-20 11:34 | 51.64817 | 0.02132 | 2170 ft | 155 kts | 279° |
| 2026-04-20 11:34 | 51.64779 | 0.00398 | 2193 ft | 155 kts | 274° |
| 2026-04-20 11:35 | 51.64807 | -0.01347 | 2178 ft | 156 kts | 275° |
| 2026-04-20 11:35 | 51.64799 | -0.03101 | 2199 ft | 160 kts | 275° |
| 2026-04-20 11:35 | 51.64817 | -0.04892 | 2210 ft | 158 kts | 276° |
| 2026-04-20 11:35 | 51.64830 | -0.06686 | 2195 ft | 162 kts | 274° |
| 2026-04-20 11:36 | 51.64848 | -0.08491 | 2198 ft | 159 kts | 275° |
| 2026-04-20 11:36 | 51.64860 | -0.10269 | 2194 ft | 158 kts | 277° |
| 2026-04-20 11:36 | 51.64878 | -0.12052 | 2203 ft | 160 kts | 276° |
| 2026-04-20 11:36 | 51.64897 | -0.13840 | 2206 ft | 159 kts | 277° |
| 2026-04-20 11:37 | 51.64928 | -0.15644 | 2217 ft | 162 kts | 274° |
| 2026-04-20 11:37 | 51.64987 | -0.19326 | 2206 ft | 165 kts | 277° |
| 2026-04-20 11:37 | 51.65007 | -0.21166 | 2210 ft | 162 kts | 274° |
| 2026-04-20 11:38 | 51.65031 | -0.22990 | 2201 ft | 161 kts | 275° |
| 2026-04-20 11:38 | 51.65050 | -0.24767 | 2202 ft | 156 kts | 275° |
| 2026-04-20 11:38 | 51.65066 | -0.26520 | 2216 ft | 159 kts | 275° |
| 2026-04-20 11:38 | 51.65091 | -0.28311 | 2204 ft | 160 kts | 275° |
| 2026-04-20 11:39 | 51.65115 | -0.30083 | 2208 ft | 156 kts | 277° |
| 2026-04-20 11:39 | 51.65129 | -0.31840 | 2210 ft | 158 kts | 274° |
| 2026-04-20 11:39 | 51.65140 | -0.33598 | 2198 ft | 156 kts | 275° |
| 2026-04-20 11:39 | 51.65152 | -0.35332 | 2211 ft | 154 kts | 276° |
| 2026-04-20 11:40 | 51.65170 | -0.37096 | 2198 ft | 159 kts | 274° |
| 2026-04-20 11:40 | 51.65186 | -0.38832 | 2215 ft | 153 kts | 275° |
| 2026-04-20 11:40 | 51.65213 | -0.40572 | 2207 ft | 156 kts | 274° |
| 2026-04-20 11:40 | 51.65248 | -0.42333 | 2189 ft | 159 kts | 275° |
| 2026-04-20 11:41 | 51.65273 | -0.44109 | 2179 ft | 159 kts | 272° |
| 2026-04-20 11:41 | 51.65300 | -0.45915 | 2173 ft | 162 kts | 275° |
| 2026-04-20 11:41 | 51.65332 | -0.47744 | 2165 ft | 165 kts | 274° |
| 2026-04-20 11:41 | 51.65366 | -0.49553 | 2174 ft | 160 kts | 275° |
| 2026-04-20 11:42 | 51.65404 | -0.51331 | 2176 ft | 159 kts | 275° |
| 2026-04-20 11:42 | 51.65433 | -0.53088 | 2174 ft | 157 kts | 274° |
| 2026-04-20 11:42 | 51.65474 | -0.54853 | 2194 ft | 160 kts | 274° |
| 2026-04-20 11:42 | 51.65518 | -0.56673 | 2166 ft | 162 kts | 276° |
| 2026-04-20 11:43 | 51.65541 | -0.58458 | 2165 ft | 157 kts | 276° |
| 2026-04-20 11:43 | 51.65570 | -0.60237 | 2186 ft | 163 kts | 274° |
| 2026-04-20 11:43 | 51.65598 | -0.62055 | 2185 ft | 164 kts | 275° |
| 2026-04-20 11:43 | 51.65633 | -0.63883 | 2168 ft | 163 kts | 275° |
| 2026-04-20 11:44 | 51.65673 | -0.65717 | 2185 ft | 165 kts | 275° |
| 2026-04-20 11:44 | 51.65708 | -0.67563 | 2163 ft | 163 kts | 274° |
| 2026-04-20 11:44 | 51.65735 | -0.69364 | 2185 ft | 161 kts | 274° |
| 2026-04-20 11:44 | 51.65752 | -0.71161 | 2185 ft | 159 kts | 274° |
| 2026-04-20 11:45 | 51.65729 | -0.72947 | 2173 ft | 163 kts | 260° |
| 2026-04-20 11:45 | 51.65075 | -0.74382 | 2145 ft | 161 kts | 209° |
| 2026-04-20 11:45 | 51.64142 | -0.75248 | 2164 ft | 152 kts | 213° |
| 2026-04-20 11:45 | 51.63234 | -0.76248 | 2159 ft | 162 kts | 212° |
| 2026-04-20 11:46 | 51.62289 | -0.77274 | 2171 ft | 165 kts | 213° |
| 2026-04-20 11:46 | 51.61331 | -0.78305 | 2164 ft | 164 kts | 213° |
| 2026-04-20 11:46 | 51.60363 | -0.79271 | 2145 ft | 164 kts | 205° |
| 2026-04-20 11:46 | 51.59319 | -0.79979 | 2157 ft | 164 kts | 200° |
| 2026-04-20 11:47 | 51.58266 | -0.80545 | 2161 ft | 159 kts | 192° |
| 2026-04-20 11:47 | 51.57189 | -0.80980 | 2156 ft | 157 kts | 191° |
| 2026-04-20 11:47 | 51.56123 | -0.81419 | 2150 ft | 160 kts | 193° |
| 2026-04-20 11:47 | 51.55079 | -0.81974 | 2157 ft | 158 kts | 197° |
| 2026-04-20 11:48 | 51.54032 | -0.82585 | 2141 ft | 162 kts | 197° |
| 2026-04-20 11:48 | 51.52973 | -0.83216 | 2194 ft | 162 kts | 197° |
| 2026-04-20 11:48 | 51.51889 | -0.83837 | 2144 ft | 164 kts | 198° |
| 2026-04-20 11:48 | 51.50833 | -0.84483 | 2155 ft | 162 kts | 200° |
| 2026-04-20 11:49 | 51.49768 | -0.85153 | 2177 ft | 171 kts | 199° |
| 2026-04-20 11:49 | 51.48644 | -0.85861 | 2201 ft | 175 kts | 199° |